Time,TemperatureF,DewpointF,PressureIn,WindDirection,WindDirectionDegrees,WindSpeedMPH,WindSpeedGustMPH,Humidity,HourlyPrecipIn,Conditions,Clouds,dailyrainin,SolarRadiationWatts/m^2,SoftwareType,DateUTC
2013-02-21 00:13:00,60.2,56.0,30.05,ENE,61,0.0,-999.0,86,-99.99,,,0.00,0,weatherlink.com 1.10,2013-02-21 05:13:00,
2013-02-21 00:28:00,60.2,56.0,30.05,ENE,61,0.0,-999.0,86,-99.99,,,0.00,0,weatherlink.com 1.10,2013-02-21 05:28:00,
2013-02-21 00:44:00,59.9,56.0,30.05,ENE,61,0.0,-999.0,87,-99.99,,,0.00,0,weatherlink.com 1.10,2013-02-21 05:44:00,
2013-02-21 00:58:00,59.8,56.0,30.04,ENE,61,0.0,-999.0,87,-99.99,,,0.00,0,weatherlink.com 1.10,2013-02-21 05:58:00,
2013-02-21 01:14:00,59.9,56.0,30.04,ENE,61,0.0,-999.0,88,-99.99,,,0.00,0,weatherlink.com 1.10,2013-02-21 06:14:00,
2013-02-21 01:29:00,60.1,57.0,30.05,ENE,61,0.0,-999.0,88,-99.99,,,0.00,0,weatherlink.com 1.10,2013-02-21 06:29:00,
2013-02-21 01:44:00,60.3,57.0,30.04,ENE,61,0.0,-999.0,87,-99.99,,,0.00,0,weatherlink.com 1.10,2013-02-21 06:44:00,
2013-02-21 01:59:00,60.4,57.0,30.03,ENE,61,0.0,-999.0,88,-99.99,,,0.00,0,weatherlink.com 1.10,2013-02-21 06:59:00,
2013-02-21 02:14:00,60.5,57.0,30.03,ENE,61,0.0,-999.0,88,-99.99,,,0.00,0,weatherlink.com 1.10,2013-02-21 07:14:00,
2013-02-21 02:29:00,60.6,58.0,30.03,ENE,61,0.0,-999.0,90,-99.99,,,0.00,0,weatherlink.com 1.10,2013-02-21 07:29:00,
2013-02-21 02:44:00,60.8,58.0,30.03,ENE,60,0.0,-999.0,90,-99.99,,,0.00,0,weatherlink.com 1.10,2013-02-21 07:44:00,
2013-02-21 02:59:00,60.9,58.0,30.02,SE,136,1.0,-999.0,90,-99.99,,,0.00,0,weatherlink.com 1.10,2013-02-21 07:59:00,
2013-02-21 03:14:00,60.9,58.0,30.02,SE,136,1.0,-999.0,90,-99.99,,,0.00,0,weatherlink.com 1.10,2013-02-21 08:14:00,
2013-02-21 03:29:00,60.9,58.0,30.01,ESE,119,2.0,-999.0,90,-99.99,,,0.00,0,weatherlink.com 1.10,2013-02-21 08:29:00,
2013-02-21 03:44:00,60.9,58.0,30.02,East,79,0.0,-999.0,89,-99.99,,,0.00,0,weatherlink.com 1.10,2013-02-21 08:44:00,
2013-02-21 03:59:00,60.9,58.0,30.01,NE,41,3.0,-999.0,89,-99.99,,,0.00,0,weatherlink.com 1.10,2013-02-21 08:59:00,
2013-02-21 04:14:00,61.1,58.0,30.02,East,92,2.0,-999.0,89,-99.99,,,0.00,0,weatherlink.com 1.10,2013-02-21 09:14:00,
2013-02-21 04:29:00,61.3,58.0,30.02,ENE,72,2.0,-999.0,89,-99.99,,,0.00,0,weatherlink.com 1.10,2013-02-21 09:29:00,
2013-02-21 04:44:00,61.3,58.0,30.02,ENE,63,0.0,-999.0,90,-99.99,,,0.00,0,weatherlink.com 1.10,2013-02-21 09:44:00,
2013-02-21 04:59:00,61.2,58.0,30.03,East,83,1.0,-999.0,90,-99.99,,,0.00,0,weatherlink.com 1.10,2013-02-21 09:59:00,
2013-02-21 05:14:00,61.1,58.0,30.03,East,83,0.0,-999.0,90,-99.99,,,0.00,0,weatherlink.com 1.10,2013-02-21 10:14:00,
2013-02-21 05:29:00,60.8,58.0,30.03,East,83,0.0,-999.0,90,-99.99,,,0.00,0,weatherlink.com 1.10,2013-02-21 10:29:00,
2013-02-21 05:44:00,60.7,58.0,30.03,East,83,0.0,-999.0,91,-99.99,,,0.00,0,weatherlink.com 1.10,2013-02-21 10:44:00,
2013-02-21 05:59:00,60.7,58.0,30.03,East,83,0.0,-999.0,91,-99.99,,,0.00,0,weatherlink.com 1.10,2013-02-21 10:59:00,
2013-02-21 06:14:00,60.7,58.0,30.03,East,83,0.0,-999.0,91,-99.99,,,0.00,0,weatherlink.com 1.10,2013-02-21 11:14:00,
2013-02-21 06:29:00,60.9,59.0,30.04,East,80,3.0,-999.0,92,-99.99,,,0.00,0,weatherlink.com 1.10,2013-02-21 11:29:00,
2013-02-21 06:44:00,60.9,58.0,30.05,ENE,65,3.0,-999.0,91,-99.99,,,0.00,0,weatherlink.com 1.10,2013-02-21 11:44:00,
2013-02-21 06:59:00,60.8,58.0,30.05,ESE,105,2.0,-999.0,91,-99.99,,,0.00,0,weatherlink.com 1.10,2013-02-21 11:59:00,
2013-02-21 07:14:00,60.8,59.0,30.05,ENE,63,1.0,-999.0,92,-99.99,,,0.00,18,weatherlink.com 1.10,2013-02-21 12:14:00,
2013-02-21 07:29:00,61.0,59.0,30.04,NE,45,1.0,-999.0,92,-99.99,,,0.00,62,weatherlink.com 1.10,2013-02-21 12:29:00,
2013-02-21 07:44:00,61.9,60.0,30.06,ENE,69,6.0,-999.0,92,-99.99,,,0.00,91,weatherlink.com 1.10,2013-02-21 12:44:00,
2013-02-21 07:59:00,62.7,60.0,30.07,ENE,59,3.0,-999.0,90,-99.99,,,0.00,134,weatherlink.com 1.10,2013-02-21 12:59:00,
2013-02-21 08:14:00,63.5,60.0,30.07,East,86,1.0,-999.0,89,-99.99,,,0.00,95,weatherlink.com 1.10,2013-02-21 13:14:00,
2013-02-21 08:29:00,63.8,61.0,30.09,ENE,74,2.0,-999.0,89,-99.99,,,0.00,322,weatherlink.com 1.10,2013-02-21 13:29:00,
2013-02-21 08:44:00,64.5,61.0,30.08,ESE,117,6.0,-999.0,88,-99.99,,,0.00,186,weatherlink.com 1.10,2013-02-21 13:44:00,
2013-02-21 08:59:00,65.1,61.0,30.09,SE,128,7.0,-999.0,87,-99.99,,,0.00,418,weatherlink.com 1.10,2013-02-21 13:59:00,
2013-02-21 09:15:00,65.3,61.0,30.09,ENE,67,2.0,-999.0,87,-99.99,,,0.00,260,weatherlink.com 1.10,2013-02-21 14:15:00,
2013-02-21 09:29:00,66.2,62.0,30.09,ESE,109,0.0,-999.0,86,-99.99,,,0.00,383,weatherlink.com 1.10,2013-02-21 14:29:00,
2013-02-21 09:44:00,67.2,62.0,30.10,NE,53,3.0,-999.0,84,-99.99,,,0.00,332,weatherlink.com 1.10,2013-02-21 14:44:00,
2013-02-21 10:00:00,68.3,63.0,30.10,NE,53,2.0,-999.0,83,-99.99,,,0.00,357,weatherlink.com 1.10,2013-02-21 15:00:00,
2013-02-21 10:15:00,69.4,64.0,30.10,NE,49,1.0,-999.0,82,-99.99,,,0.00,564,weatherlink.com 1.10,2013-02-21 15:15:00,
2013-02-21 10:30:00,70.3,64.0,30.09,SSE,158,2.0,-999.0,80,-99.99,,,0.00,587,weatherlink.com 1.10,2013-02-21 15:30:00,
2013-02-21 10:45:00,72.0,65.0,30.09,ESE,119,4.0,-999.0,78,-99.99,,,0.00,675,weatherlink.com 1.10,2013-02-21 15:45:00,
2013-02-21 11:00:00,72.5,65.0,30.09,NE,42,4.0,-999.0,76,-99.99,,,0.00,526,weatherlink.com 1.10,2013-02-21 16:00:00,
2013-02-21 11:15:00,73.4,65.0,30.09,SSE,165,2.0,-999.0,76,-99.99,,,0.00,715,weatherlink.com 1.10,2013-02-21 16:15:00,
2013-02-21 11:30:00,74.3,66.0,30.09,East,93,2.0,-999.0,75,-99.99,,,0.00,742,weatherlink.com 1.10,2013-02-21 16:30:00,
2013-02-21 11:45:00,75.6,66.0,30.08,ESE,105,2.0,-999.0,73,-99.99,,,0.00,737,weatherlink.com 1.10,2013-02-21 16:45:00,
2013-02-21 12:00:00,76.5,66.0,30.07,NE,45,1.0,-999.0,71,-99.99,,,0.00,779,weatherlink.com 1.10,2013-02-21 17:00:00,
2013-02-21 12:15:00,76.8,66.0,30.07,South,180,1.0,-999.0,70,-99.99,,,0.00,814,weatherlink.com 1.10,2013-02-21 17:15:00,
2013-02-21 12:30:00,77.1,67.0,30.06,East,95,4.0,-999.0,70,-99.99,,,0.00,796,weatherlink.com 1.10,2013-02-21 17:30:00,
2013-02-21 12:45:00,77.8,67.0,30.05,East,98,1.0,-999.0,69,-99.99,,,0.00,788,weatherlink.com 1.10,2013-02-21 17:45:00,
2013-02-21 13:00:00,78.8,67.0,30.05,ESE,122,1.0,-999.0,67,-99.99,,,0.00,823,weatherlink.com 1.10,2013-02-21 18:00:00,
2013-02-21 13:15:00,78.2,66.0,30.04,SSE,150,4.0,-999.0,67,-99.99,,,0.00,819,weatherlink.com 1.10,2013-02-21 18:15:00,
2013-02-21 13:30:00,79.7,66.0,30.03,SE,133,2.0,-999.0,64,-99.99,,,0.00,257,weatherlink.com 1.10,2013-02-21 18:30:00,
2013-02-21 13:45:00,80.3,67.0,30.02,SSW,194,3.0,-999.0,63,-99.99,,,0.00,854,weatherlink.com 1.10,2013-02-21 18:45:00,
2013-02-21 14:00:00,81.4,66.0,30.02,ESE,109,1.0,-999.0,60,-99.99,,,0.00,206,weatherlink.com 1.10,2013-02-21 19:00:00,
2013-02-21 14:16:00,81.6,66.0,30.01,SW,235,0.0,-999.0,59,-99.99,,,0.00,826,weatherlink.com 1.10,2013-02-21 19:16:00,
2013-02-21 14:30:00,81.6,67.0,30.01,SSW,207,0.0,-999.0,61,-99.99,,,0.00,715,weatherlink.com 1.10,2013-02-21 19:30:00,
2013-02-21 14:45:00,82.5,67.0,30.00,South,182,0.0,-999.0,60,-99.99,,,0.00,705,weatherlink.com 1.10,2013-02-21 19:45:00,
2013-02-21 15:00:00,82.3,67.0,30.00,SSE,168,1.0,-999.0,60,-99.99,,,0.00,617,weatherlink.com 1.10,2013-02-21 20:00:00,
2013-02-21 15:16:00,82.0,67.0,30.00,SSW,200,2.0,-999.0,61,-99.99,,,0.00,580,weatherlink.com 1.10,2013-02-21 20:16:00,
2013-02-21 15:30:00,81.7,67.0,29.99,SW,215,1.0,-999.0,61,-99.99,,,0.00,533,weatherlink.com 1.10,2013-02-21 20:30:00,
2013-02-21 15:45:00,80.8,66.0,29.99,WSW,258,1.0,-999.0,62,-99.99,,,0.00,487,weatherlink.com 1.10,2013-02-21 20:45:00,
2013-02-21 16:00:00,80.5,66.0,29.99,SSW,198,0.0,-999.0,61,-99.99,,,0.00,274,weatherlink.com 1.10,2013-02-21 21:00:00,
2013-02-21 16:15:00,79.5,66.0,30.00,West,266,3.0,-999.0,64,-99.99,,,0.00,109,weatherlink.com 1.10,2013-02-21 21:15:00,
2013-02-21 16:31:00,78.5,66.0,29.99,SSE,153,0.0,-999.0,66,-99.99,,,0.00,121,weatherlink.com 1.10,2013-02-21 21:31:00,
2013-02-21 16:46:00,77.8,66.0,29.98,WSW,240,0.0,-999.0,67,-99.99,,,0.00,69,weatherlink.com 1.10,2013-02-21 21:46:00,
2013-02-21 17:01:00,77.1,64.0,29.98,South,180,0.0,-999.0,65,-99.99,,,0.00,60,weatherlink.com 1.10,2013-02-21 22:01:00,
2013-02-21 17:16:00,76.6,65.0,29.98,West,273,1.0,-999.0,67,-99.99,,,0.00,51,weatherlink.com 1.10,2013-02-21 22:16:00,
2013-02-21 17:31:00,76.1,65.0,29.98,SSW,209,2.0,-999.0,69,-99.99,,,0.00,49,weatherlink.com 1.10,2013-02-21 22:31:00,
2013-02-21 17:46:00,75.4,65.0,29.98,SSW,199,2.0,-999.0,71,-99.99,,,0.00,30,weatherlink.com 1.10,2013-02-21 22:46:00,
2013-02-21 18:01:00,74.8,65.0,29.98,South,180,0.0,-999.0,72,-99.99,,,0.00,18,weatherlink.com 1.10,2013-02-21 23:01:00,
2013-02-21 18:16:00,74.1,65.0,29.99,South,188,1.0,-999.0,74,-99.99,,,0.00,9,weatherlink.com 1.10,2013-02-21 23:16:00,
2013-02-21 18:31:00,73.4,65.0,29.99,SSW,207,4.0,-999.0,75,-99.99,,,0.00,0,weatherlink.com 1.10,2013-02-21 23:31:00,
2013-02-21 18:46:00,72.9,65.0,29.99,South,182,2.0,-999.0,77,-99.99,,,0.00,0,weatherlink.com 1.10,2013-02-21 23:46:00,
2013-02-21 19:01:00,72.4,65.0,30.00,SSW,198,0.0,-999.0,78,-99.99,,,0.00,0,weatherlink.com 1.10,2013-02-22 00:01:00,
2013-02-21 19:16:00,71.9,65.0,30.00,WSW,242,0.0,-999.0,79,-99.99,,,0.00,0,weatherlink.com 1.10,2013-02-22 00:16:00,
2013-02-21 19:31:00,71.5,65.0,30.00,SSW,196,0.0,-999.0,80,-99.99,,,0.00,0,weatherlink.com 1.10,2013-02-22 00:31:00,
2013-02-21 19:46:00,71.0,65.0,30.00,SW,214,0.0,-999.0,81,-99.99,,,0.00,0,weatherlink.com 1.10,2013-02-22 00:46:00,
2013-02-21 20:01:00,70.7,65.0,30.00,SSW,205,0.0,-999.0,81,-99.99,,,0.00,0,weatherlink.com 1.10,2013-02-22 01:01:00,
2013-02-21 20:16:00,70.4,65.0,30.00,WSW,246,0.0,-999.0,82,-99.99,,,0.00,0,weatherlink.com 1.10,2013-02-22 01:16:00,
2013-02-21 20:31:00,70.1,64.0,30.00,WSW,252,0.0,-999.0,82,-99.99,,,0.00,0,weatherlink.com 1.10,2013-02-22 01:31:00,
2013-02-21 20:46:00,69.8,64.0,30.00,WSW,246,0.0,-999.0,83,-99.99,,,0.00,0,weatherlink.com 1.10,2013-02-22 01:46:00,
2013-02-21 21:01:00,69.4,64.0,30.01,WSW,246,0.0,-999.0,83,-99.99,,,0.00,0,weatherlink.com 1.10,2013-02-22 02:01:00,
2013-02-21 21:16:00,69.1,64.0,30.01,WSW,246,0.0,-999.0,84,-99.99,,,0.00,0,weatherlink.com 1.10,2013-02-22 02:16:00,
2013-02-21 21:31:00,68.7,64.0,30.01,WSW,246,0.0,-999.0,85,-99.99,,,0.00,0,weatherlink.com 1.10,2013-02-22 02:31:00,
2013-02-21 21:46:00,68.3,64.0,30.02,WSW,246,0.0,-999.0,86,-99.99,,,0.00,0,weatherlink.com 1.10,2013-02-22 02:46:00,
2013-02-21 22:01:00,68.0,64.0,30.02,WSW,246,0.0,-999.0,87,-99.99,,,0.00,0,weatherlink.com 1.10,2013-02-22 03:01:00,
2013-02-21 22:16:00,67.6,64.0,30.02,WSW,246,0.0,-999.0,87,-99.99,,,0.00,0,weatherlink.com 1.10,2013-02-22 03:16:00,
2013-02-21 22:31:00,67.3,64.0,30.02,WSW,246,0.0,-999.0,88,-99.99,,,0.00,0,weatherlink.com 1.10,2013-02-22 03:31:00,
2013-02-21 22:46:00,67.2,64.0,30.02,WSW,246,0.0,-999.0,89,-99.99,,,0.00,0,weatherlink.com 1.10,2013-02-22 03:46:00,
2013-02-21 23:01:00,67.2,64.0,30.02,WSW,246,0.0,-999.0,89,-99.99,,,0.00,0,weatherlink.com 1.10,2013-02-22 04:01:00,
2013-02-21 23:16:00,67.5,64.0,30.02,WSW,246,0.0,-999.0,89,-99.99,,,0.00,0,weatherlink.com 1.10,2013-02-22 04:16:00,
2013-02-21 23:31:00,67.7,64.0,30.02,SSW,205,0.0,-999.0,88,-99.99,,,0.00,0,weatherlink.com 1.10,2013-02-22 04:31:00,
2013-02-21 23:46:00,67.8,64.0,30.02,SSW,205,0.0,-999.0,87,-99.99,,,0.00,0,weatherlink.com 1.10,2013-02-22 04:46:00,